Gansville, Louisiana
Current Conditions -  °F | °C
As of 7:35 PM on Friday 28 Nov 2014 (Local Time) from KRSN Reporting Station
Clear Clear  
Wind Chill: 51°   Ceiling: Unl
Heat Index: 51°   Visibility: 10mi
Dew Point: 40°   Wind: 7mph
Humidity: 68%   Direction: 170°S
Pressure: 30.19"   Gusts: NA
Location:  32.0727°N, 92.6697°W
Report Text: KRSN 290135Z AUTO 17006KT 10SM CLR 10/05 A3019 RMK AO2 T01030047
Loading
Personal Weather Stations






























Interactive Weather Map New forecast layout! Learn more

10-Day Weather Forecast

Advertisements
Track Severe Weather on mobile